Time;durP1;ratioP1;P1;durP2;ratioP2;P2;SDS_P1;SDS_P2;PMS_P1;PMS_P2;Temp;Humidity;BMP_temperature;BMP_pressure;BME280_temperature;BME280_humidity;BME280_pressure;Samples;Min_cycle;Max_cycle;Signal;HPM_P1;HPM_P2
2022/06/25 00:01:15;;;;;;;1.93;1.73;;;17.80;99.90;;;18.31;nan;100249.59;5013211;28;20613;-66
2022/06/25 00:03:43;;;;;;;2.50;2.30;;;17.70;99.90;;;18.35;nan;100253.53;5012095;28;20661;-66
2022/06/25 00:06:11;;;;;;;2.10;1.80;;;17.70;99.90;;;18.30;nan;100255.84;5011466;28;20707;-66
2022/06/25 00:08:47;;;;;;;1.90;1.80;;;17.70;99.90;;;18.24;nan;100261.81;4992999;28;21102;-66
2022/06/25 00:14:10;;;;;;;1.77;1.67;;;17.60;99.90;;;18.39;nan;100265.41;4997057;28;20814;-66
2022/06/25 00:16:38;;;;;;;1.90;1.80;;;17.80;99.90;;;18.37;nan;100266.56;4994353;28;20619;-66
2022/06/25 00:19:05;;;;;;;2.10;2.00;;;17.80;99.90;;;18.33;nan;100271.38;4993198;28;20614;-66
2022/06/25 00:21:32;;;;;;;1.77;1.67;;;17.70;99.90;;;18.31;nan;100267.25;4993734;28;20614;-66
2022/06/25 00:23:59;;;;;;;2.30;2.10;;;17.70;99.90;;;18.32;nan;100275.00;4992723;28;20662;-66
2022/06/25 00:26:27;;;;;;;2.03;1.83;;;17.70;99.90;;;18.34;nan;100270.38;5002024;28;20645;-66
2022/06/25 00:28:54;;;;;;;2.80;2.30;;;17.70;99.90;;;18.35;nan;100265.91;5012728;28;20621;-66
2022/06/25 00:31:21;;;;;;;2.33;2.13;;;17.70;99.90;;;18.36;nan;100281.59;5002271;28;20654;-66
2022/06/25 00:33:49;;;;;;;2.23;2.13;;;17.70;99.90;;;18.25;nan;100274.00;4993017;28;20673;-67
2022/06/25 00:36:16;;;;;;;3.03;2.00;;;17.70;99.90;;;18.30;nan;100281.44;4992109;28;20638;-66
2022/06/25 00:38:43;;;;;;;2.23;2.13;;;17.70;99.90;;;18.24;nan;100282.09;4993460;28;21049;-66
2022/06/25 00:41:12;;;;;;;2.40;2.20;;;17.60;99.90;;;18.24;nan;100282.09;4994985;28;20982;-66
2022/06/25 00:43:40;;;;;;;2.20;2.10;;;17.60;99.90;;;18.24;nan;100284.75;4999341;28;20653;-66
2022/06/25 00:46:07;;;;;;;2.30;2.10;;;17.60;99.90;;;18.23;nan;100286.56;5012237;28;20662;-66
2022/06/25 00:48:34;;;;;;;2.10;2.00;;;17.60;99.90;;;18.26;nan;100291.53;5013122;28;20617;-66
2022/06/25 00:51:12;;;;;;;2.07;1.87;;;17.60;99.90;;;18.26;nan;100286.22;5013346;28;20645;-66
2022/06/25 00:53:45;;;;;;;1.73;1.60;;;17.60;99.90;;;18.26;nan;100280.94;4997029;28;20765;-66
2022/06/25 00:56:14;;;;;;;1.60;1.60;;;17.70;99.90;;;18.11;nan;100277.34;4992175;28;20630;-66
2022/06/25 00:58:44;;;;;;;2.53;2.10;;;17.60;99.90;;;18.09;nan;100274.03;4992689;28;20611;-66
2022/06/25 01:01:14;;;;;;;2.57;2.23;;;17.50;99.90;;;18.06;nan;100284.94;5004989;28;21193;-66
2022/06/25 01:03:41;;;;;;;1.90;1.80;;;17.50;99.90;;;18.02;nan;100288.91;5012608;28;20649;-67
2022/06/25 01:06:08;;;;;;;1.60;1.50;;;17.50;99.90;;;18.00;nan;100292.69;5011621;28;20621;-66
2022/06/25 01:08:36;;;;;;;2.50;2.23;;;17.40;99.90;;;18.03;nan;100285.28;5010551;28;21010;-66
2022/06/25 01:11:03;;;;;;;2.27;2.17;;;17.40;99.90;;;17.97;nan;100291.22;4999175;28;20639;-67
2022/06/25 01:13:31;;;;;;;2.17;2.07;;;17.40;99.90;;;17.94;nan;100290.72;4992286;28;20666;-66
2022/06/25 01:15:58;;;;;;;3.53;2.07;;;17.40;99.90;;;17.88;nan;100289.56;4992110;28;20625;-66
2022/06/25 01:18:25;;;;;;;2.00;1.90;;;17.30;99.90;;;17.84;nan;100291.69;4992864;28;21208;-67
2022/06/25 01:20:52;;;;;;;2.50;1.50;;;17.30;99.90;;;17.74;nan;100295.47;4993199;28;20715;-66
2022/06/25 01:23:19;;;;;;;1.70;1.60;;;17.20;99.90;;;17.75;nan;100297.97;4992210;28;20622;-66
2022/06/25 01:25:47;;;;;;;2.30;2.20;;;17.20;99.90;;;17.76;nan;100286.41;4993374;28;20630;-66
2022/06/25 01:28:14;;;;;;;2.63;2.37;;;17.20;99.90;;;17.71;nan;100296.66;5008799;28;20642;-66
2022/06/25 01:30:41;;;;;;;1.80;1.70;;;17.10;99.90;;;17.71;nan;100301.94;4993328;28;21039;-66
2022/06/25 01:33:09;;;;;;;2.03;1.77;;;17.10;99.90;;;17.69;nan;100297.81;4989605;28;20677;-66
2022/06/25 01:35:36;;;;;;;4.03;2.30;;;17.10;99.90;;;17.72;nan;100297.47;4991670;28;21196;-66
2022/06/25 01:38:04;;;;;;;2.00;1.90;;;17.10;99.90;;;17.74;nan;100296.31;5002994;28;20633;-66
2022/06/25 01:40:33;;;;;;;1.70;1.60;;;17.10;99.90;;;17.72;nan;100293.03;5006430;28;20632;-66
2022/06/25 01:43:01;;;;;;;2.93;2.30;;;17.20;99.90;;;17.78;nan;100292.34;4990646;28;20638;-66
2022/06/25 01:45:34;;;;;;;2.30;2.10;;;17.20;99.90;;;17.73;nan;100292.03;4992472;28;20641;-66
2022/06/25 01:48:05;;;;;;;3.43;2.00;;;17.20;99.90;;;17.68;nan;100304.06;4989684;28;20664;-67
2022/06/25 01:50:33;;;;;;;2.23;2.13;;;17.10;99.90;;;17.63;nan;100299.28;4992273;28;20637;-66
2022/06/25 01:53:00;;;;;;;1.93;1.83;;;17.10;99.90;;;17.72;nan;100305.38;4990970;28;20662;-66
2022/06/25 01:55:27;;;;;;;2.70;1.90;;;17.10;99.90;;;17.67;nan;100302.44;4992392;28;20638;-66
2022/06/25 01:57:54;;;;;;;1.97;1.87;;;17.10;99.90;;;17.68;nan;100304.88;5006133;28;20637;-66
2022/06/25 02:00:25;;;;;;;1.80;1.73;;;17.10;99.90;;;17.73;nan;100314.97;5011157;28;20629;-66
2022/06/25 02:02:53;;;;;;;2.30;1.93;;;17.10;99.90;;;17.81;nan;100317.59;5011403;28;20978;-66
2022/06/25 02:05:56;;;;;;;2.10;2.00;;;17.20;99.90;;;17.73;nan;100320.25;5011075;28;20668;-67
2022/06/25 02:08:13;;;;;;;2.17;2.07;;;17.10;99.90;;;17.62;nan;100315.28;4992841;28;21226;-66
2022/06/25 02:10:41;;;;;;;2.20;2.10;;;17.00;99.90;;;17.58;nan;100313.94;4990613;28;20622;-66
2022/06/25 02:13:09;;;;;;;3.10;2.30;;;17.00;99.90;;;17.58;nan;100321.88;4989680;28;21221;-66
2022/06/25 02:15:36;;;;;;;2.10;1.90;;;17.00;99.90;;;17.55;nan;100316.91;4983846;28;20633;-66
2022/06/25 02:18:03;;;;;;;3.57;1.97;;;16.90;99.90;;;17.61;nan;100321.56;4994704;28;21010;-66
2022/06/25 02:20:30;;;;;;;1.70;1.60;;;17.00;99.90;;;17.70;nan;100310.00;5008347;28;20610;-65
2022/06/25 02:22:58;;;;;;;1.87;1.80;;;17.10;99.90;;;17.61;nan;100311.00;5008609;28;20635;-66
2022/06/25 02:25:25;;;;;;;3.10;1.90;;;17.00;99.90;;;17.68;nan;100317.25;5011102;28;20645;-66
2022/06/25 02:27:52;;;;;;;1.63;1.63;;;17.10;99.90;;;17.64;nan;100326.47;5010378;28;20648;-67
2022/06/25 02:30:19;;;;;;;2.57;2.37;;;17.00;99.90;;;17.59;nan;100324.34;4997203;28;20643;-67
2022/06/25 02:32:47;;;;;;;2.47;2.27;;;17.00;99.90;;;17.51;nan;100320.84;4999344;28;20670;-67
2022/06/25 02:35:15;;;;;;;2.10;2.00;;;16.90;99.90;;;17.50;nan;100327.13;4990205;28;20650;-66
2022/06/25 02:37:42;;;;;;;3.00;2.23;;;16.90;99.90;;;17.58;nan;100325.34;4991838;28;20694;-66
2022/06/25 02:40:10;;;;;;;1.90;1.83;;;17.00;99.90;;;17.64;nan;100326.47;4988792;28;20643;-68
2022/06/25 02:42:38;;;;;;;2.30;2.10;;;17.00;99.90;;;17.61;nan;100326.81;4993073;28;20641;-67
2022/06/25 02:45:08;;;;;;;2.50;2.30;;;17.00;99.90;;;17.62;nan;100325.81;5005569;28;20668;-66
2022/06/25 02:47:35;;;;;;;2.20;2.10;;;17.00;99.90;;;17.69;nan;100327.66;4996184;28;20630;-67
2022/06/25 02:50:04;;;;;;;2.00;1.90;;;17.10;99.90;;;17.73;nan;100323.72;4992878;28;20627;-66
2022/06/25 02:52:31;;;;;;;2.33;1.93;;;17.10;99.90;;;17.72;nan;100314.13;4995044;28;20699;-66
2022/06/25 02:54:57;;;;;;;2.27;1.93;;;17.10;99.90;;;17.62;nan;100315.28;4994739;28;20685;-66
2022/06/25 03:00:13;;;;;;;2.53;2.33;;;17.00;99.90;;;17.59;nan;100316.41;4994287;28;20614;-66
2022/06/25 03:02:41;;;;;;;2.73;2.53;;;17.00;99.90;;;17.63;nan;100325.66;4992491;28;20634;-66
2022/06/25 03:05:09;;;;;;;2.47;2.37;;;17.00;99.90;;;17.57;nan;100326.31;4994945;28;21017;-66
2022/06/25 03:07:37;;;;;;;2.20;2.10;;;16.90;99.90;;;17.53;nan;100329.44;4994035;28;21004;-66
2022/06/25 03:10:04;;;;;;;3.87;2.37;;;16.90;99.90;;;17.53;nan;100332.91;4994094;28;20614;-67
2022/06/25 03:12:32;;;;;;;2.80;2.40;;;16.90;99.90;;;17.54;nan;100325.81;4994440;28;21236;-67
2022/06/25 03:14:59;;;;;;;3.20;2.50;;;16.90;99.90;;;17.46;nan;100331.03;5002546;28;20656;-66
2022/06/25 03:17:26;;;;;;;2.33;2.23;;;16.90;99.90;;;17.43;nan;100328.72;5005991;28;20629;-66
2022/06/25 03:19:53;;;;;;;2.67;2.47;;;16.90;99.90;;;17.48;nan;100329.06;5013534;28;20622;-66
2022/06/25 03:22:20;;;;;;;2.90;2.70;;;16.90;99.90;;;17.53;nan;100334.69;5014929;28;21169;-66
2022/06/25 03:24:47;;;;;;;2.60;2.40;;;16.90;99.90;;;17.62;nan;100333.75;5010976;28;20660;-67
2022/06/25 03:27:14;;;;;;;3.23;3.03;;;17.00;99.90;;;17.62;nan;100339.00;5002284;28;20776;-66
2022/06/25 03:29:41;;;;;;;2.70;2.50;;;17.00;99.90;;;17.60;nan;100336.53;5003808;28;20648;-66
2022/06/25 03:32:08;;;;;;;5.10;3.07;;;17.00;99.90;;;17.52;nan;100349.72;4992191;28;20622;-66
2022/06/25 03:34:36;;;;;;;4.00;2.27;;;16.90;99.90;;;17.53;nan;100338.16;4993536;28;20677;-66
2022/06/25 03:37:03;;;;;;;4.30;2.70;;;16.90;99.90;;;17.60;nan;100339.19;4994014;28;20625;-66
2022/06/25 03:39:30;;;;;;;4.23;3.00;;;17.00;99.90;;;17.58;nan;100343.81;4993961;28;20627;-66
2022/06/25 03:41:57;;;;;;;2.77;2.67;;;17.00;99.90;;;17.66;nan;100350.88;4995946;28;21237;-66
2022/06/25 03:44:24;;;;;;;8.60;2.80;;;17.00;99.90;;;17.54;nan;100354.84;4994017;28;20662;-66
2022/06/25 03:46:51;;;;;;;7.90;2.93;;;17.00;99.90;;;17.65;nan;100354.53;4992964;28;21011;-66
2022/06/25 03:49:18;;;;;;;3.23;3.00;;;17.00;99.90;;;17.76;nan;100362.13;4993562;28;20642;-66
2022/06/25 03:51:45;;;;;;;5.03;3.00;;;17.20;99.90;;;17.80;nan;100359.00;4993951;28;20638;-66
2022/06/25 03:54:12;;;;;;;3.30;3.10;;;17.30;99.90;;;17.90;nan;100358.84;4993272;28;20674;-67
2022/06/25 03:56:39;;;;;;;3.13;2.93;;;17.40;99.90;;;18.06;nan;100361.50;4992002;28;21225;-66
2022/06/25 03:59:06;;;;;;;3.33;3.10;;;17.50;99.90;;;18.28;nan;100358.19;4996896;28;20634;-68
2022/06/25 04:01:33;;;;;;;3.87;3.57;;;17.70;99.90;;;18.47;nan;100360.53;5006162;28;20648;-66
2022/06/25 04:04:00;;;;;;;3.80;3.17;;;17.90;99.90;;;18.61;nan;100368.75;4995201;28;20694;-67
2022/06/25 04:06:27;;;;;;;3.80;3.47;;;18.10;99.90;;;18.53;nan;100364.31;5008812;28;20634;-66
2022/06/25 04:08:54;;;;;;;3.50;3.20;;;18.00;99.90;;;18.58;nan;100368.09;5011005;28;20668;-65
2022/06/25 04:11:22;;;;;;;3.60;3.30;;;18.00;99.90;;;18.55;nan;100376.34;5013199;28;20621;-66
2022/06/25 04:13:49;;;;;;;4.53;3.37;;;18.00;99.90;;;18.52;nan;100375.88;5004745;28;20727;-67
2022/06/25 04:16:17;;;;;;;3.90;3.57;;;18.00;99.90;;;18.71;nan;100380.78;4996048;28;20637;-66
2022/06/25 04:18:44;;;;;;;3.53;3.20;;;18.20;99.90;;;18.79;nan;100377.28;4992129;28;21218;-66
2022/06/25 04:21:11;;;;;;;2.80;2.60;;;18.40;99.90;;;18.99;nan;100379.41;4993540;28;20618;-67
2022/06/25 04:23:38;;;;;;;3.10;2.90;;;18.50;99.90;;;19.12;nan;100376.22;5003730;28;20664;-66
2022/06/25 04:26:05;;;;;;;5.17;3.50;;;18.70;99.90;;;19.30;nan;100382.09;5012879;28;20621;-66
2022/06/25 04:31:17;;;;;;;3.77;3.30;;;19.10;99.90;;;19.76;nan;100373.25;4993462;28;20634;-65
2022/06/25 04:33:44;;;;;;;3.00;2.80;;;19.30;99.90;;;19.96;nan;100381.56;4992690;28;20658;-66
2022/06/25 04:36:11;;;;;;;4.03;3.40;;;19.60;99.90;;;20.22;nan;100386.53;4998067;28;20653;-66
2022/06/25 04:38:38;;;;;;;2.73;2.63;;;19.80;99.90;;;20.05;nan;100385.81;4992950;28;20642;-66
2022/06/25 04:41:05;;;;;;;3.40;3.10;;;19.60;99.90;;;20.25;nan;100396.78;4991017;28;21206;-67
2022/06/25 04:43:32;;;;;;;3.27;2.97;;;19.80;99.90;;;20.36;nan;100402.47;4998077;28;20670;-66
2022/06/25 04:46:00;;;;;;;3.60;2.70;;;19.90;99.90;;;20.45;nan;100400.56;5010232;28;20637;-66
2022/06/25 04:48:27;;;;;;;3.40;3.10;;;20.00;99.90;;;20.50;nan;100395.56;5010314;28;20649;-66
2022/06/25 04:50:54;;;;;;;4.70;2.93;;;20.00;99.90;;;20.59;nan;100391.84;4982008;28;21228;-66
2022/06/25 04:56:05;;;;;;;5.50;3.37;;;20.30;99.90;;;20.91;nan;100396.81;4970494;28;20659;-66
2022/06/25 04:58:32;;;;;;;2.40;2.30;;;20.50;99.90;;;21.10;nan;100396.31;4971830;28;21147;-65
2022/06/25 05:00:59;;;;;;;2.93;2.73;;;20.70;99.90;;;21.24;nan;100403.44;4972125;28;21179;-66
2022/06/25 05:03:27;;;;;;;3.40;3.10;;;20.90;99.90;;;21.19;nan;100403.16;4972443;28;20630;-64
2022/06/25 05:05:53;;;;;;;3.80;2.57;;;20.80;99.90;;;21.31;nan;100403.50;4972166;28;20654;-66
2022/06/25 05:08:21;;;;;;;3.30;2.87;;;20.90;99.90;;;21.23;nan;100404.41;4971034;28;20643;-64
2022/06/25 05:10:48;;;;;;;2.47;2.33;;;20.90;99.90;;;21.38;nan;100405.22;4972185;28;20639;-66
2022/06/25 05:13:15;;;;;;;5.10;2.80;;;21.00;99.90;;;21.59;nan;100402.63;4970850;28;20678;-66
2022/06/25 05:15:43;;;;;;;3.23;2.90;;;21.20;99.90;;;21.77;nan;100396.09;4972715;28;20655;-64
2022/06/25 05:18:12;;;;;;;3.33;3.00;;;21.40;99.90;;;21.92;nan;100400.38;4970796;28;20623;-66
2022/06/25 05:20:41;;;;;;;3.40;2.20;;;21.60;99.90;;;21.86;nan;100401.13;4971680;28;20620;-65
2022/06/25 05:23:09;;;;;;;10.93;3.13;;;21.50;99.90;;;22.17;nan;100406.97;4972330;28;20654;-65
2022/06/25 05:25:37;;;;;;;7.40;2.60;;;21.70;99.90;;;22.45;nan;100406.16;4971922;28;20655;-66
2022/06/25 05:28:05;;;;;;;2.60;2.40;;;22.10;99.90;;;22.51;nan;100408.88;4967964;28;21448;-66
2022/06/25 05:30:32;;;;;;;4.17;3.00;;;22.10;99.90;;;22.58;nan;100415.06;4978492;28;20628;-67
2022/06/25 05:33:00;;;;;;;13.10;3.13;;;22.20;99.90;;;22.60;nan;100417.56;4971261;28;20623;-65
2022/06/25 05:35:27;;;;;;;3.33;2.60;;;22.30;99.90;;;22.82;nan;100411.19;4971122;28;20667;-67
2022/06/25 05:37:55;;;;;;;3.10;2.90;;;22.40;99.90;;;22.94;nan;100425.59;4972418;28;20637;-67
2022/06/25 05:40:22;;;;;;;3.07;2.83;;;22.60;99.90;;;23.09;nan;100429.78;4971092;28;20643;-64
2022/06/25 05:42:49;;;;;;;2.57;2.47;;;22.70;99.90;;;23.35;nan;100428.31;4962646;28;20644;-67
2022/06/25 05:45:16;;;;;;;2.80;2.57;;;22.90;99.90;;;23.29;nan;100435.25;4951599;28;20682;-65
2022/06/25 05:47:43;;;;;;;2.10;2.00;;;23.00;99.90;;;23.23;nan;100430.69;4951768;29;20644;-66
2022/06/25 05:50:10;;;;;;;2.77;2.60;;;22.90;99.90;;;23.11;nan;100430.41;4954772;28;20640;-65
2022/06/25 05:52:37;;;;;;;2.70;2.37;;;22.80;99.90;;;23.38;nan;100434.09;4971393;28;20631;-66
2022/06/25 05:55:06;;;;;;;2.67;2.43;;;22.90;99.90;;;23.88;nan;100430.16;4971511;28;21272;-65
2022/06/25 05:57:33;;;;;;;6.00;2.80;;;23.50;99.90;;;24.34;nan;100436.41;4964493;28;20663;-65
2022/06/25 06:00:01;;;;;;;2.27;2.17;;;24.00;99.90;;;24.78;nan;100443.03;4952720;28;20619;-64
2022/06/25 06:02:28;;;;;;;1.87;1.77;;;24.50;99.90;;;25.03;nan;100441.34;4962158;28;20872;-65
2022/06/25 06:04:55;;;;;;;2.70;1.83;;;24.80;99.90;;;25.53;nan;100448.66;4970070;28;20639;-63
2022/06/25 06:07:22;;;;;;;1.50;1.50;;;25.30;99.90;;;25.77;nan;100449.78;4968952;28;21077;-65
2022/06/25 06:09:49;;;;;;;2.20;2.10;;;25.50;99.90;;;25.78;nan;100449.56;4972128;28;20626;-64
2022/06/25 06:12:16;;;;;;;2.40;2.20;;;25.40;99.90;;;26.30;nan;100443.09;4970183;28;20720;-67
2022/06/25 06:14:43;;;;;;;1.87;1.77;;;26.00;99.90;;;;;;4971009;28;20664;-67
2022/06/25 06:17:10;;;;;;;9.70;2.17;;;26.60;99.90;;;;;;4970956;28;20619;-65
2022/06/25 06:19:37;;;;;;;1.63;1.53;;;26.80;99.90;;;;;;4971569;28;20623;-65
2022/06/25 06:22:04;;;;;;;1.77;1.70;;;27.30;99.90;;;;;;4969749;28;20627;-65
2022/06/25 06:24:31;;;;;;;2.30;1.60;;;27.30;99.90;;;;;;4971451;28;20651;-65
2022/06/25 06:26:58;;;;;;;2.43;2.23;;;27.40;99.40;;;;;;4967315;28;20647;-66
2022/06/25 06:29:24;;;;;;;1.83;1.73;;;27.90;98.60;;;;;;4956739;28;20674;-65
2022/06/25 06:31:51;;;;;;;2.00;1.90;;;28.30;97.60;;;;;;4970181;28;20718;-66
2022/06/25 06:34:18;;;;;;;1.80;1.80;;;28.80;96.50;;;;;;4970642;28;20675;-67
2022/06/25 06:36:45;;;;;;;2.03;1.93;;;29.70;95.20;;;;;;4972187;28;20621;-66
2022/06/25 06:39:12;;;;;;;1.70;1.60;;;30.70;92.70;;;;;;4969889;28;21114;-65
2022/06/25 06:41:39;;;;;;;2.00;1.73;;;31.30;90.90;;;;;;4970135;28;20627;-66
2022/06/25 06:44:06;;;;;;;2.17;1.97;;;32.20;87.60;;;;;;4969949;28;20742;-66
2022/06/25 06:46:38;;;;;;;4.97;1.60;;;33.20;83.10;;;;;;4970093;28;20639;-68
2022/06/25 06:49:05;;;;;;;3.60;1.80;;;33.80;77.90;;;;;;4968969;28;20725;-67
2022/06/25 06:51:32;;;;;;;2.10;2.00;;;33.90;74.10;;;;;;4967775;28;20628;-67
2022/06/25 06:53:59;;;;;;;2.27;2.17;;;33.40;75.10;;;;;;4975224;28;20680;-65
2022/06/25 06:56:26;;;;;;;1.63;1.60;;;33.80;73.00;;;;;;4982687;28;21116;-65
2022/06/25 06:58:53;;;;;;;1.70;1.70;;;34.10;72.00;;;;;;4974537;28;20722;-67
2022/06/25 07:01:20;;;;;;;2.20;2.10;;;35.40;69.90;;;;;;4975742;28;20647;-65
2022/06/25 07:03:47;;;;;;;1.80;1.70;;;35.90;67.20;;;;;;4971111;28;20727;-66
2022/06/25 07:06:14;;;;;;;2.30;1.90;;;36.60;64.50;;;;;;4971685;28;20622;-66
2022/06/25 07:08:41;;;;;;;1.70;1.70;;;37.60;62.60;;;;;;4970150;28;21190;-66
2022/06/25 07:11:28;;;;;;;1.90;1.80;;;38.40;59.90;;;;;;4967815;28;20711;-67
2022/06/25 07:13:56;;;;;;;1.90;1.90;;;37.90;58.50;;;;;;4971123;28;21008;-65
2022/06/25 07:16:23;;;;;;;1.53;1.53;;;36.60;59.10;;;;;;4970640;28;20625;-67
2022/06/25 07:18:53;;;;;;;3.93;1.87;;;34.90;61.80;;;;;;4971701;28;20686;-66
2022/06/25 07:21:20;;;;;;;2.20;2.00;;;33.30;64.30;;;;;;4969812;28;21214;-65
2022/06/25 07:23:47;;;;;;;2.27;2.17;;;32.40;66.90;;;;;;4971113;28;20659;-67
2022/06/25 07:26:14;;;;;;;2.90;1.83;;;33.30;67.00;;;;;;4971114;28;20623;-66
2022/06/25 07:28:41;;;;;;;1.63;1.63;;;35.30;62.60;;;;;;4955797;28;20638;-65
2022/06/25 07:31:08;;;;;;;1.87;1.77;;;37.10;60.60;;;;;;4975219;28;20629;-67
2022/06/25 07:33:35;;;;;;;2.03;1.90;;;38.80;57.00;;;;;;4972914;28;20622;-66
2022/06/25 07:36:02;;;;;;;3.33;1.90;;;39.00;56.50;;;39.99;nan;100444.88;4973726;28;21001;-67
2022/06/25 07:38:29;;;;;;;2.00;1.90;;;39.30;55.10;;;40.03;nan;100435.75;4973842;28;20631;-64
2022/06/25 07:40:57;;;;;;;2.03;1.77;;;39.10;55.10;;;39.60;nan;100445.44;4968876;28;20647;-66
2022/06/25 07:43:25;;;;;;;1.90;1.80;;;38.80;54.70;;;40.49;nan;100443.63;4972373;28;20634;-66
2022/06/25 07:45:52;;;;;;;1.80;1.70;;;39.60;54.00;;;40.22;nan;100443.75;4973935;28;20662;-64
2022/06/25 07:48:20;;;;;;;1.90;1.80;;;39.50;52.60;;;39.98;nan;100443.25;4974234;28;20633;-65
2022/06/25 07:53:32;;;;;;;19.63;17.73;;;40.40;53.10;;;42.20;nan;100446.88;4968037;28;20681;-65
2022/06/25 07:55:59;;;;;;;3.27;2.53;;;41.50;50.50;;;42.38;nan;100444.94;4971603;28;20650;-63
2022/06/25 07:58:27;;;;;;;1.53;1.53;;;41.50;49.50;;;42.52;nan;100431.03;4971644;28;20620;-64
2022/06/25 08:00:55;;;;;;;1.70;1.70;;;41.70;50.10;;;42.56;nan;100432.81;4973528;28;20642;-65
2022/06/25 08:03:22;;;;;;;2.20;2.10;;;41.80;48.90;;;42.04;nan;100431.25;4972967;28;20634;-64
2022/06/25 08:05:49;;;;;;;1.57;1.57;;;41.30;49.10;;;40.55;nan;100422.44;4971656;28;21074;-65
2022/06/25 08:08:16;;;;;;;1.90;1.80;;;40.00;49.80;;;40.11;nan;100428.72;4968929;28;20654;-64
2022/06/25 08:10:43;;;;;;;2.10;1.90;;;39.20;50.70;;;39.71;nan;100426.91;4973336;28;20654;-63
2022/06/25 08:13:10;;;;;;;2.83;1.83;;;38.80;50.90;;;41.05;nan;100420.25;4972794;28;20642;-66
2022/06/25 08:15:38;;;;;;;4.37;1.60;;;40.00;50.30;;;43.12;nan;100423.38;4988113;28;20663;-65
2022/06/25 08:18:05;;;;;;;1.83;1.73;;;42.10;48.90;;;43.15;nan;100426.28;4973841;28;20640;-65
2022/06/25 08:20:32;;;;;;;2.30;1.87;;;43.00;46.80;;;42.60;nan;100421.97;4973960;28;20623;-65
2022/06/25 08:22:59;;;;;;;1.47;1.47;;;41.80;47.70;;;43.30;nan;100424.13;4973782;28;21044;-64
2022/06/25 08:25:26;;;;;;;2.23;2.00;;;42.60;46.90;;;42.13;nan;100418.34;4974088;28;20659;-65
2022/06/25 08:27:54;;;;;;;1.80;1.80;;;41.40;46.80;;;40.40;nan;100414.63;4971315;28;20646;-66
2022/06/25 08:30:22;;;;;;;2.03;1.87;;;39.60;48.70;;;41.09;nan;100416.56;4974023;28;20635;-67
2022/06/25 08:32:50;;;;;;;1.90;1.80;;;40.00;49.20;;;43.21;nan;100415.91;4972607;28;20638;-65
2022/06/25 08:35:17;;;;;;;1.80;1.53;;;42.20;47.60;;;44.93;nan;100421.50;4980711;28;20686;-63
2022/06/25 08:37:50;;;;;;;9.67;8.63;;;44.00;45.50;;;44.93;nan;100421.50;4971134;28;21369;-65
2022/06/25 08:40:19;;;;;;;3.00;2.80;;;45.60;43.70;;;47.39;nan;100421.28;4970968;28;20632;-65
2022/06/25 08:42:48;;;;;;;1.80;1.70;;;46.70;42.40;;;47.95;nan;100416.16;4966180;28;20640;-66
2022/06/25 08:45:17;;;;;;;1.50;1.50;;;47.30;40.70;;;47.43;nan;100406.38;4960641;28;20682;-69
2022/06/25 08:47:51;;;;;;;1.50;1.40;;;46.90;40.60;;;44.05;nan;100399.16;4971787;28;20630;-65
2022/06/25 08:50:21;;;;;;;1.27;1.27;;;43.90;41.40;;;41.74;nan;100389.19;4967152;28;20635;-64
2022/06/25 08:52:55;;;;;;;1.50;1.50;;;41.10;43.80;;;39.51;nan;100377.06;4970790;28;20643;-66
2022/06/25 08:55:36;;;;;;;1.67;1.57;;;38.80;46.00;;;37.76;nan;100371.03;4966378;28;20675;-64
2022/06/25 08:58:05;;;;;;;1.30;1.20;;;37.00;48.00;;;36.07;nan;100369.97;4962875;28;20635;-66
2022/06/25 09:00:36;;;;;;;1.77;1.67;;;35.50;50.60;;;34.42;nan;100364.94;4970681;28;20629;-65
2022/06/25 09:03:04;;;;;;;2.00;1.90;;;33.70;52.80;;;33.03;nan;100376.03;4972798;28;20627;-65
2022/06/25 09:05:34;;;;;;;2.30;1.90;;;32.30;55.40;;;;;;4967599;28;20791;-68
2022/06/25 09:08:03;;;;;;;1.90;1.80;;;31.30;56.60;;;;;;4952286;28;20672;-65
2022/06/25 09:10:31;;;;;;;1.40;1.40;;;30.70;57.50;;;;;;4962486;28;21286;-67
2022/06/25 09:13:00;;;;;;;1.60;1.50;;;30.10;58.90;;;;;;4971792;28;21290;-68
2022/06/25 09:15:39;;;;;;;1.77;1.67;;;29.60;60.20;;;;;;4971811;28;20675;-65
2022/06/25 09:18:10;;;;;;;3.10;2.90;;;29.00;60.60;;;;;;4971397;28;20615;-66
2022/06/25 09:21:08;;;;;;;2.43;2.20;;;28.50;63.20;;;;;;4973298;28;20722;-66
2022/06/25 09:24:00;;;;;;;2.00;1.90;;;28.60;63.60;;;;;;4958305;28;21105;-65
2022/06/25 09:26:27;;;;;;;3.13;1.90;;;28.80;62.90;;;;;;4965272;28;20645;-67
2022/06/25 09:28:59;;;;;;;2.23;1.93;;;28.90;62.50;;;;;;4965455;28;21119;-65
2022/06/25 09:31:37;;;;;;;2.47;2.37;;;28.90;62.90;;;;;;4966851;28;20730;-66
2022/06/25 09:34:08;;;;;;;2.60;2.40;;;28.70;64.50;;;;;;4971283;28;20705;-66
2022/06/25 09:36:36;;;;;;;3.83;2.50;;;28.50;64.80;;;;;;4969393;28;21289;-67
2022/06/25 09:39:04;;;;;;;10.53;8.13;;;28.40;65.20;;;;;;4968505;28;21242;-66
2022/06/25 09:41:50;;;;;;;5.17;4.70;;;28.30;65.10;;;;;;4967203;28;21270;-66
2022/06/25 09:44:21;;;;;;;4.93;4.53;;;28.10;66.30;;;;;;4968342;28;21289;-65
2022/06/25 09:46:59;;;;;;;3.20;2.03;;;28.30;66.40;;;;;;4968688;28;21265;-65
2022/06/25 09:49:26;;;;;;;1.90;1.73;;;28.50;64.80;;;;;;4971825;28;20722;-66
2022/06/25 09:52:01;;;;;;;2.53;2.10;;;28.60;64.00;;;;;;4971375;28;21043;-66
2022/06/25 09:54:28;;;;;;;2.00;1.90;;;28.60;65.30;;;;;;4959818;28;20780;-67
2022/06/25 09:56:56;;;;;;;2.93;2.00;;;28.80;64.70;;;;;;4970687;28;20619;-65
2022/06/25 09:59:25;;;;;;;1.70;1.60;;;28.50;64.80;;;;;;4967092;28;20734;-65
2022/06/25 10:01:52;;;;;;;1.77;1.67;;;28.40;64.30;;;;;;4969410;28;21211;-66
2022/06/25 10:04:21;;;;;;;1.90;1.80;;;28.30;63.80;;;;;;4968927;28;20646;-64
2022/06/25 10:06:51;;;;;;;2.33;2.13;;;28.10;65.50;;;;;;4968599;28;21024;-65
2022/06/25 10:09:20;;;;;;;3.17;2.87;;;27.80;66.90;;;;;;4971603;28;20657;-65
2022/06/25 10:11:48;;;;;;;2.70;2.40;;;27.50;67.80;;;;;;4967037;28;21045;-64
2022/06/25 10:14:15;;;;;;;1.90;1.80;;;27.10;69.10;;;;;;4970152;28;20666;-65
2022/06/25 10:16:43;;;;;;;1.90;1.80;;;26.90;70.00;;;;;;4969218;28;21031;-65
2022/06/25 10:19:12;;;;;;;2.00;1.90;;;26.90;68.90;;;27.83;nan;100340.31;4967307;28;20667;-65
2022/06/25 10:21:40;;;;;;;1.70;1.60;;;27.10;69.40;;;28.09;nan;100331.91;4960331;28;20636;-65
2022/06/25 10:24:07;;;;;;;2.10;1.67;;;27.30;69.30;;;28.14;nan;100332.00;4969810;28;21273;-66
2022/06/25 10:26:35;;;;;;;4.80;1.77;;;27.30;69.20;;;28.32;nan;100335.41;4967699;28;20636;-65
2022/06/25 10:29:28;;;;;;;2.13;2.03;;;27.50;69.40;;;28.64;nan;100327.88;4968232;28;20639;-65
2022/06/25 10:32:17;;;;;;;1.80;1.70;;;27.80;69.60;;;28.90;nan;100330.03;4958529;28;20713;-66
2022/06/25 10:34:55;;;;;;;2.10;2.00;;;28.20;67.50;;;28.83;nan;100339.28;4975939;28;20659;-65
2022/06/25 10:37:23;;;;;;;2.00;1.90;;;28.10;68.10;;;28.78;nan;100329.25;4967273;28;20642;-66
2022/06/25 10:39:55;;;;;;;1.93;1.73;;;28.00;68.00;;;28.84;nan;100328.28;4955292;28;20633;-64
2022/06/25 10:45:14;;;;;;;15.27;11.63;;;28.20;67.00;;;29.06;nan;100321.25;4960220;28;20674;-67
2022/06/25 10:47:48;;;;;;;3.07;2.87;;;28.30;68.20;;;29.31;nan;100317.44;4970865;28;20988;-64
2022/06/25 10:50:21;;;;;;;4.40;2.00;;;28.50;67.80;;;28.97;nan;100314.59;4966569;28;20632;-65
2022/06/25 10:53:04;;;;;;;2.20;2.10;;;28.20;69.10;;;28.94;nan;100311.59;4954643;28;21090;-64
2022/06/25 10:55:35;;;;;;;2.20;2.00;;;28.20;68.90;;;28.53;nan;100312.56;4959961;28;20680;-63
2022/06/25 10:58:22;;;;;;;2.07;1.97;;;27.90;67.80;;;28.66;nan;100314.19;4967473;28;20646;-64
2022/06/25 11:00:53;;;;;;;2.07;1.87;;;27.90;68.60;;;28.90;nan;100311.22;4965969;28;20650;-64
2022/06/25 11:03:29;;;;;;;2.00;1.90;;;28.00;69.10;;;28.87;nan;100305.53;4955084;28;20693;-63
2022/06/25 11:06:16;;;;;;;1.70;1.60;;;28.10;69.10;;;28.55;nan;100297.03;4964704;28;20641;-64
2022/06/25 11:08:44;;;;;;;1.67;1.57;;;27.80;69.70;;;28.33;nan;100298.66;4967615;28;20646;-65
2022/06/25 11:11:12;;;;;;;1.90;1.80;;;27.50;70.00;;;28.28;nan;100302.03;4955480;28;20647;-64
2022/06/25 11:13:42;;;;;;;2.60;2.20;;;27.50;69.80;;;28.50;nan;100282.66;4961444;28;20638;-64
2022/06/25 11:16:15;;;;;;;1.77;1.73;;;27.70;69.80;;;28.55;nan;100286.28;4972387;28;20667;-65
2022/06/25 11:18:51;;;;;;;2.30;1.90;;;27.70;69.40;;;28.64;nan;100289.47;4970122;28;21183;-65